sensor_id;sensor_type;location;lat;lon;timestamp;temperature;humidity
72128;DHT22;60000;51.030;7.024;2023-06-04T00:01:03;14.60;43.92
72128;DHT22;60000;51.030;7.024;2023-06-04T00:03:29;14.55;44.20
72128;DHT22;60000;51.030;7.024;2023-06-04T00:05:54;14.52;44.13
72128;DHT22;60000;51.030;7.024;2023-06-04T00:08:19;14.48;44.30
72128;DHT22;60000;51.030;7.024;2023-06-04T00:10:45;14.45;44.27
72128;DHT22;60000;51.030;7.024;2023-06-04T00:13:10;14.40;44.27
72128;DHT22;60000;51.030;7.024;2023-06-04T00:15:35;14.38;44.54
72128;DHT22;60000;51.030;7.024;2023-06-04T00:18:01;14.35;44.55
72128;DHT22;60000;51.030;7.024;2023-06-04T00:20:26;14.31;44.62
72128;DHT22;60000;51.030;7.024;2023-06-04T00:22:51;14.24;44.75
72128;DHT22;60000;51.030;7.024;2023-06-04T00:25:17;14.20;44.95
72128;DHT22;60000;51.030;7.024;2023-06-04T00:27:42;14.17;45.01
72128;DHT22;60000;51.030;7.024;2023-06-04T00:30:08;14.10;45.25
72128;DHT22;60000;51.030;7.024;2023-06-04T00:32:33;14.09;45.16
72128;DHT22;60000;51.030;7.024;2023-06-04T00:34:58;14.03;45.16
72128;DHT22;60000;51.030;7.024;2023-06-04T00:37:28;13.97;45.50
72128;DHT22;60000;51.030;7.024;2023-06-04T00:39:53;13.93;45.64
72128;DHT22;60000;51.030;7.024;2023-06-04T00:42:19;13.86;45.77
72128;DHT22;60000;51.030;7.024;2023-06-04T00:44:44;13.77;45.92
72128;DHT22;60000;51.030;7.024;2023-06-04T00:47:11;13.72;46.65
72128;DHT22;60000;51.030;7.024;2023-06-04T00:49:38;13.59;47.34
72128;DHT22;60000;51.030;7.024;2023-06-04T00:52:03;13.49;48.42
72128;DHT22;60000;51.030;7.024;2023-06-04T00:54:29;13.38;49.15
72128;DHT22;60000;51.030;7.024;2023-06-04T00:56:55;13.28;49.73
72128;DHT22;60000;51.030;7.024;2023-06-04T00:59:20;13.16;49.89
72128;DHT22;60000;51.030;7.024;2023-06-04T01:04:20;12.94;50.73
72128;DHT22;60000;51.030;7.024;2023-06-04T01:06:50;12.84;50.35
72128;DHT22;60000;51.030;7.024;2023-06-04T01:09:16;12.76;50.86
72128;DHT22;60000;51.030;7.024;2023-06-04T01:11:41;12.66;51.33
72128;DHT22;60000;51.030;7.024;2023-06-04T01:14:08;12.57;52.65
72128;DHT22;60000;51.030;7.024;2023-06-04T01:16:43;12.52;53.10
72128;DHT22;60000;51.030;7.024;2023-06-04T01:22:36;12.37;53.44
72128;DHT22;60000;51.030;7.024;2023-06-04T01:25:05;12.30;53.66
72128;DHT22;60000;51.030;7.024;2023-06-04T01:27:30;12.25;54.06
72128;DHT22;60000;51.030;7.024;2023-06-04T01:29:58;12.16;54.09
72128;DHT22;60000;51.030;7.024;2023-06-04T01:32:24;12.11;54.41
72128;DHT22;60000;51.030;7.024;2023-06-04T01:34:50;12.02;54.22
72128;DHT22;60000;51.030;7.024;2023-06-04T01:37:15;11.98;54.53
72128;DHT22;60000;51.030;7.024;2023-06-04T01:39:44;11.92;55.24
72128;DHT22;60000;51.030;7.024;2023-06-04T01:42:09;11.87;54.94
72128;DHT22;60000;51.030;7.024;2023-06-04T01:44:35;11.78;55.05
72128;DHT22;60000;51.030;7.024;2023-06-04T01:47:00;11.71;55.85
72128;DHT22;60000;51.030;7.024;2023-06-04T01:49:25;11.68;55.50
72128;DHT22;60000;51.030;7.024;2023-06-04T01:51:51;11.60;56.03
72128;DHT22;60000;51.030;7.024;2023-06-04T01:54:16;11.56;56.66
72128;DHT22;60000;51.030;7.024;2023-06-04T01:56:42;11.50;56.91
72128;DHT22;60000;51.030;7.024;2023-06-04T01:59:07;11.40;57.31
72128;DHT22;60000;51.030;7.024;2023-06-04T02:01:33;11.38;57.49
72128;DHT22;60000;51.030;7.024;2023-06-04T02:03:59;11.36;57.98
72128;DHT22;60000;51.030;7.024;2023-06-04T02:06:24;11.37;57.66
72128;DHT22;60000;51.030;7.024;2023-06-04T02:08:55;11.36;57.80
72128;DHT22;60000;51.030;7.024;2023-06-04T02:11:20;11.36;57.29
72128;DHT22;60000;51.030;7.024;2023-06-04T02:13:46;11.41;57.81
72128;DHT22;60000;51.030;7.024;2023-06-04T02:16:11;11.41;57.46
72128;DHT22;60000;51.030;7.024;2023-06-04T02:18:36;11.34;57.88
72128;DHT22;60000;51.030;7.024;2023-06-04T02:21:02;11.27;57.51
72128;DHT22;60000;51.030;7.024;2023-06-04T02:23:27;11.26;57.74
72128;DHT22;60000;51.030;7.024;2023-06-04T02:25:52;11.20;58.16
72128;DHT22;60000;51.030;7.024;2023-06-04T02:28:18;11.12;57.97
72128;DHT22;60000;51.030;7.024;2023-06-04T02:30:44;11.06;58.30
72128;DHT22;60000;51.030;7.024;2023-06-04T02:33:10;11.00;58.86
72128;DHT22;60000;51.030;7.024;2023-06-04T02:35:36;10.96;59.48
72128;DHT22;60000;51.030;7.024;2023-06-04T02:38:02;10.91;59.66
72128;DHT22;60000;51.030;7.024;2023-06-04T02:40:28;10.85;60.30
72128;DHT22;60000;51.030;7.024;2023-06-04T02:42:54;10.75;60.48
72128;DHT22;60000;51.030;7.024;2023-06-04T02:45:20;10.71;61.03
72128;DHT22;60000;51.030;7.024;2023-06-04T02:47:46;10.68;61.03
72128;DHT22;60000;51.030;7.024;2023-06-04T02:50:13;10.59;60.72
72128;DHT22;60000;51.030;7.024;2023-06-04T02:52:38;10.58;61.41
72128;DHT22;60000;51.030;7.024;2023-06-04T02:55:06;10.54;61.65
72128;DHT22;60000;51.030;7.024;2023-06-04T02:57:32;10.47;61.88
72128;DHT22;60000;51.030;7.024;2023-06-04T02:59:59;10.45;62.17
72128;DHT22;60000;51.030;7.024;2023-06-04T03:02:24;10.40;62.42
72128;DHT22;60000;51.030;7.024;2023-06-04T03:04:50;10.38;62.56
72128;DHT22;60000;51.030;7.024;2023-06-04T03:07:16;10.34;62.75
72128;DHT22;60000;51.030;7.024;2023-06-04T03:09:48;10.25;63.41
72128;DHT22;60000;51.030;7.024;2023-06-04T03:12:14;10.22;63.23
72128;DHT22;60000;51.030;7.024;2023-06-04T03:14:39;10.20;63.70
72128;DHT22;60000;51.030;7.024;2023-06-04T03:17:05;10.20;63.71
72128;DHT22;60000;51.030;7.024;2023-06-04T03:19:36;10.18;63.78
72128;DHT22;60000;51.030;7.024;2023-06-04T03:22:03;10.17;64.03
72128;DHT22;60000;51.030;7.024;2023-06-04T03:24:37;10.13;63.90
72128;DHT22;60000;51.030;7.024;2023-06-04T03:27:03;10.06;63.84
72128;DHT22;60000;51.030;7.024;2023-06-04T03:29:29;10.03;64.12
72128;DHT22;60000;51.030;7.024;2023-06-04T03:31:58;10.03;64.32
72128;DHT22;60000;51.030;7.024;2023-06-04T03:34:23;9.97;64.85
72128;DHT22;60000;51.030;7.024;2023-06-04T03:36:55;9.97;65.12
72128;DHT22;60000;51.030;7.024;2023-06-04T03:39:21;9.94;64.98
72128;DHT22;60000;51.030;7.024;2023-06-04T03:41:47;9.91;65.09
72128;DHT22;60000;51.030;7.024;2023-06-04T03:44:17;9.90;64.93
72128;DHT22;60000;51.030;7.024;2023-06-04T03:46:43;9.86;64.48
72128;DHT22;60000;51.030;7.024;2023-06-04T03:49:09;9.87;65.00
72128;DHT22;60000;51.030;7.024;2023-06-04T03:51:36;9.87;65.34
72128;DHT22;60000;51.030;7.024;2023-06-04T03:54:02;9.89;65.76
72128;DHT22;60000;51.030;7.024;2023-06-04T03:56:27;9.83;65.64
72128;DHT22;60000;51.030;7.024;2023-06-04T03:58:54;9.83;65.53
72128;DHT22;60000;51.030;7.024;2023-06-04T04:01:19;9.82;66.02
72128;DHT22;60000;51.030;7.024;2023-06-04T04:03:44;9.82;66.35
72128;DHT22;60000;51.030;7.024;2023-06-04T04:06:13;9.79;66.44
72128;DHT22;60000;51.030;7.024;2023-06-04T04:08:39;9.80;67.05
72128;DHT22;60000;51.030;7.024;2023-06-04T04:11:07;9.83;67.59
72128;DHT22;60000;51.030;7.024;2023-06-04T04:13:33;9.79;66.66
72128;DHT22;60000;51.030;7.024;2023-06-04T04:15:58;9.82;67.66
72128;DHT22;60000;51.030;7.024;2023-06-04T04:18:23;9.83;67.29
72128;DHT22;60000;51.030;7.024;2023-06-04T04:20:49;9.80;67.36
72128;DHT22;60000;51.030;7.024;2023-06-04T04:23:14;9.85;67.73
72128;DHT22;60000;51.030;7.024;2023-06-04T04:25:40;9.87;67.29
72128;DHT22;60000;51.030;7.024;2023-06-04T04:28:06;9.90;67.56
72128;DHT22;60000;51.030;7.024;2023-06-04T04:30:35;9.91;67.52
72128;DHT22;60000;51.030;7.024;2023-06-04T04:33:01;9.96;67.89
72128;DHT22;60000;51.030;7.024;2023-06-04T04:35:26;10.00;67.84
72128;DHT22;60000;51.030;7.024;2023-06-04T04:37:52;10.07;67.66
72128;DHT22;60000;51.030;7.024;2023-06-04T04:40:17;10.04;67.43
72128;DHT22;60000;51.030;7.024;2023-06-04T04:42:43;10.10;67.17
72128;DHT22;60000;51.030;7.024;2023-06-04T04:45:08;10.11;66.53
72128;DHT22;60000;51.030;7.024;2023-06-04T04:47:34;10.18;66.71
72128;DHT22;60000;51.030;7.024;2023-06-04T04:49:59;10.22;66.24
72128;DHT22;60000;51.030;7.024;2023-06-04T04:52:25;10.27;65.70
72128;DHT22;60000;51.030;7.024;2023-06-04T04:54:50;10.30;65.35
72128;DHT22;60000;51.030;7.024;2023-06-04T04:57:20;10.36;65.22
72128;DHT22;60000;51.030;7.024;2023-06-04T04:59:45;10.42;65.41
72128;DHT22;60000;51.030;7.024;2023-06-04T05:02:11;10.49;65.33
72128;DHT22;60000;51.030;7.024;2023-06-04T05:04:36;10.54;64.85
72128;DHT22;60000;51.030;7.024;2023-06-04T05:07:01;10.65;64.72
72128;DHT22;60000;51.030;7.024;2023-06-04T05:09:27;10.69;64.05
72128;DHT22;60000;51.030;7.024;2023-06-04T05:11:52;10.78;64.04
72128;DHT22;60000;51.030;7.024;2023-06-04T05:14:17;10.91;63.47
72128;DHT22;60000;51.030;7.024;2023-06-04T05:16:42;11.00;62.73
72128;DHT22;60000;51.030;7.024;2023-06-04T05:19:09;11.12;62.31
72128;DHT22;60000;51.030;7.024;2023-06-04T05:21:36;11.26;61.94
72128;DHT22;60000;51.030;7.024;2023-06-04T05:24:02;11.37;61.10
72128;DHT22;60000;51.030;7.024;2023-06-04T05:26:27;11.48;61.20
72128;DHT22;60000;51.030;7.024;2023-06-04T05:28:53;11.58;60.06
72128;DHT22;60000;51.030;7.024;2023-06-04T05:31:19;11.68;60.02
72128;DHT22;60000;51.030;7.024;2023-06-04T05:33:44;11.78;59.75
72128;DHT22;60000;51.030;7.024;2023-06-04T05:36:10;11.85;59.28
72128;DHT22;60000;51.030;7.024;2023-06-04T05:38:35;12.02;58.94
72128;DHT22;60000;51.030;7.024;2023-06-04T05:41:01;12.18;58.38
72128;DHT22;60000;51.030;7.024;2023-06-04T05:43:29;12.36;58.23
72128;DHT22;60000;51.030;7.024;2023-06-04T05:45:54;12.47;58.39
72128;DHT22;60000;51.030;7.024;2023-06-04T05:48:20;12.61;57.34
72128;DHT22;60000;51.030;7.024;2023-06-04T05:50:45;12.70;56.89
72128;DHT22;60000;51.030;7.024;2023-06-04T05:53:12;12.83;56.59
72128;DHT22;60000;51.030;7.024;2023-06-04T05:55:37;13.07;57.34
72128;DHT22;60000;51.030;7.024;2023-06-04T05:58:03;13.42;56.88
72128;DHT22;60000;51.030;7.024;2023-06-04T06:00:28;13.82;55.22
72128;DHT22;60000;51.030;7.024;2023-06-04T06:02:55;14.31;55.59
72128;DHT22;60000;51.030;7.024;2023-06-04T06:05:20;14.85;55.12
72128;DHT22;60000;51.030;7.024;2023-06-04T06:07:46;15.40;53.57
72128;DHT22;60000;51.030;7.024;2023-06-04T06:10:12;16.01;51.10
72128;DHT22;60000;51.030;7.024;2023-06-04T06:12:38;16.48;49.34
72128;DHT22;60000;51.030;7.024;2023-06-04T06:15:04;17.06;47.64
72128;DHT22;60000;51.030;7.024;2023-06-04T06:17:30;17.48;46.72
72128;DHT22;60000;51.030;7.024;2023-06-04T06:19:55;18.11;45.68
72128;DHT22;60000;51.030;7.024;2023-06-04T06:22:21;18.58;44.48
72128;DHT22;60000;51.030;7.024;2023-06-04T06:24:47;19.15;43.10
72128;DHT22;60000;51.030;7.024;2023-06-04T06:27:14;19.65;42.24
72128;DHT22;60000;51.030;7.024;2023-06-04T06:29:40;20.11;41.94
72128;DHT22;60000;51.030;7.024;2023-06-04T06:32:06;20.72;41.73
72128;DHT22;60000;51.030;7.024;2023-06-04T06:34:31;21.43;39.43
72128;DHT22;60000;51.030;7.024;2023-06-04T06:36:56;21.71;39.54
72128;DHT22;60000;51.030;7.024;2023-06-04T06:39:22;22.11;36.95
72128;DHT22;60000;51.030;7.024;2023-06-04T06:41:47;22.37;36.16
72128;DHT22;60000;51.030;7.024;2023-06-04T06:44:13;23.29;36.11
72128;DHT22;60000;51.030;7.024;2023-06-04T06:46:38;23.81;34.50
72128;DHT22;60000;51.030;7.024;2023-06-04T06:49:03;24.32;33.83
72128;DHT22;60000;51.030;7.024;2023-06-04T06:51:29;24.76;33.13
72128;DHT22;60000;51.030;7.024;2023-06-04T06:53:54;24.60;30.59
72128;DHT22;60000;51.030;7.024;2023-06-04T06:56:20;24.97;31.59
72128;DHT22;60000;51.030;7.024;2023-06-04T06:58:45;25.31;29.71
72128;DHT22;60000;51.030;7.024;2023-06-04T07:01:11;25.57;30.76
72128;DHT22;60000;51.030;7.024;2023-06-04T07:03:37;25.82;30.11
72128;DHT22;60000;51.030;7.024;2023-06-04T07:06:03;26.22;30.64
72128;DHT22;60000;51.030;7.024;2023-06-04T07:08:29;26.50;29.72
72128;DHT22;60000;51.030;7.024;2023-06-04T07:10:54;26.81;28.49
72128;DHT22;60000;51.030;7.024;2023-06-04T07:13:19;27.22;28.99
72128;DHT22;60000;51.030;7.024;2023-06-04T07:15:45;27.43;28.50
72128;DHT22;60000;51.030;7.024;2023-06-04T07:18:10;27.42;28.59
72128;DHT22;60000;51.030;7.024;2023-06-04T07:20:36;27.19;27.42
72128;DHT22;60000;51.030;7.024;2023-06-04T07:23:01;27.22;28.17
72128;DHT22;60000;51.030;7.024;2023-06-04T07:25:27;27.63;27.21
72128;DHT22;60000;51.030;7.024;2023-06-04T07:27:52;28.00;27.54
72128;DHT22;60000;51.030;7.024;2023-06-04T07:30:17;28.18;26.54
72128;DHT22;60000;51.030;7.024;2023-06-04T07:32:50;28.28;26.66
72128;DHT22;60000;51.030;7.024;2023-06-04T07:35:15;28.35;27.08
72128;DHT22;60000;51.030;7.024;2023-06-04T07:37:40;28.73;26.35
72128;DHT22;60000;51.030;7.024;2023-06-04T07:40:07;28.92;25.21
72128;DHT22;60000;51.030;7.024;2023-06-04T07:42:32;29.13;24.48
72128;DHT22;60000;51.030;7.024;2023-06-04T07:44:58;29.43;25.75
72128;DHT22;60000;51.030;7.024;2023-06-04T07:47:24;29.55;24.53
72128;DHT22;60000;51.030;7.024;2023-06-04T07:49:49;29.67;24.12
72128;DHT22;60000;51.030;7.024;2023-06-04T07:52:15;29.84;23.43
72128;DHT22;60000;51.030;7.024;2023-06-04T07:54:41;29.54;22.86
72128;DHT22;60000;51.030;7.024;2023-06-04T07:57:07;29.39;22.94
72128;DHT22;60000;51.030;7.024;2023-06-04T07:59:33;29.33;24.16
72128;DHT22;60000;51.030;7.024;2023-06-04T08:01:59;29.76;24.27
72128;DHT22;60000;51.030;7.024;2023-06-04T08:04:24;30.02;23.64
72128;DHT22;60000;51.030;7.024;2023-06-04T08:06:49;30.09;22.71
72128;DHT22;60000;51.030;7.024;2023-06-04T08:09:15;29.57;21.68
72128;DHT22;60000;51.030;7.024;2023-06-04T08:11:41;29.59;23.42
72128;DHT22;60000;51.030;7.024;2023-06-04T08:14:08;29.69;22.75
72128;DHT22;60000;51.030;7.024;2023-06-04T08:16:33;29.67;22.48
72128;DHT22;60000;51.030;7.024;2023-06-04T08:18:58;29.85;22.31
72128;DHT22;60000;51.030;7.024;2023-06-04T08:21:27;29.76;22.48
72128;DHT22;60000;51.030;7.024;2023-06-04T08:23:53;29.90;21.71
72128;DHT22;60000;51.030;7.024;2023-06-04T08:26:18;29.90;21.58
72128;DHT22;60000;51.030;7.024;2023-06-04T08:28:47;29.88;21.18
72128;DHT22;60000;51.030;7.024;2023-06-04T08:31:12;29.78;21.08
72128;DHT22;60000;51.030;7.024;2023-06-04T08:33:37;29.68;21.30
72128;DHT22;60000;51.030;7.024;2023-06-04T08:36:03;29.88;21.34
72128;DHT22;60000;51.030;7.024;2023-06-04T08:38:28;30.02;21.69
72128;DHT22;60000;51.030;7.024;2023-06-04T08:40:57;29.99;21.30
72128;DHT22;60000;51.030;7.024;2023-06-04T08:43:29;30.08;21.41
72128;DHT22;60000;51.030;7.024;2023-06-04T08:45:59;29.75;21.58
72128;DHT22;60000;51.030;7.024;2023-06-04T08:48:28;29.74;21.45
72128;DHT22;60000;51.030;7.024;2023-06-04T08:50:56;29.78;21.66
72128;DHT22;60000;51.030;7.024;2023-06-04T08:53:22;30.16;22.06
72128;DHT22;60000;51.030;7.024;2023-06-04T08:55:49;29.81;21.04
72128;DHT22;60000;51.030;7.024;2023-06-04T08:58:15;29.99;22.00
72128;DHT22;60000;51.030;7.024;2023-06-04T09:00:41;29.67;20.82
72128;DHT22;60000;51.030;7.024;2023-06-04T09:03:07;29.74;21.85
72128;DHT22;60000;51.030;7.024;2023-06-04T09:05:33;29.68;21.83
72128;DHT22;60000;51.030;7.024;2023-06-04T09:08:00;29.96;22.18
72128;DHT22;60000;51.030;7.024;2023-06-04T09:10:26;29.99;21.20
72128;DHT22;60000;51.030;7.024;2023-06-04T09:12:54;30.16;22.37
72128;DHT22;60000;51.030;7.024;2023-06-04T09:15:20;30.27;20.81
72128;DHT22;60000;51.030;7.024;2023-06-04T09:17:45;30.30;21.73
72128;DHT22;60000;51.030;7.024;2023-06-04T09:20:21;30.25;20.96
72128;DHT22;60000;51.030;7.024;2023-06-04T09:22:46;30.39;21.38
72128;DHT22;60000;51.030;7.024;2023-06-04T09:25:20;30.17;20.80
72128;DHT22;60000;51.030;7.024;2023-06-04T09:27:45;30.23;21.85
72128;DHT22;60000;51.030;7.024;2023-06-04T09:30:11;30.37;21.18
72128;DHT22;60000;51.030;7.024;2023-06-04T09:32:36;30.27;20.53
72128;DHT22;60000;51.030;7.024;2023-06-04T09:35:16;30.40;21.25
72128;DHT22;60000;51.030;7.024;2023-06-04T09:37:51;30.61;20.35
72128;DHT22;60000;51.030;7.024;2023-06-04T09:40:16;30.75;20.92
72128;DHT22;60000;51.030;7.024;2023-06-04T09:45:09;30.75;20.58
72128;DHT22;60000;51.030;7.024;2023-06-04T09:47:42;30.90;20.66
72128;DHT22;60000;51.030;7.024;2023-06-04T09:50:08;30.99;20.47
72128;DHT22;60000;51.030;7.024;2023-06-04T09:52:34;31.14;21.34
72128;DHT22;60000;51.030;7.024;2023-06-04T09:54:59;31.11;19.88
72128;DHT22;60000;51.030;7.024;2023-06-04T09:57:29;31.16;20.20
72128;DHT22;60000;51.030;7.024;2023-06-04T09:59:55;31.25;19.53
72128;DHT22;60000;51.030;7.024;2023-06-04T10:02:22;31.47;20.37
72128;DHT22;60000;51.030;7.024;2023-06-04T10:04:55;31.76;20.33
72128;DHT22;60000;51.030;7.024;2023-06-04T10:07:27;31.80;19.74
72128;DHT22;60000;51.030;7.024;2023-06-04T10:09:53;31.94;20.18
72128;DHT22;60000;51.030;7.024;2023-06-04T10:12:31;31.63;18.36
72128;DHT22;60000;51.030;7.024;2023-06-04T10:15:10;31.89;20.00
72128;DHT22;60000;51.030;7.024;2023-06-04T10:17:35;31.76;19.45
72128;DHT22;60000;51.030;7.024;2023-06-04T10:20:02;31.80;19.02
72128;DHT22;60000;51.030;7.024;2023-06-04T10:22:31;31.50;19.17
72128;DHT22;60000;51.030;7.024;2023-06-04T10:25:00;31.33;18.50
72128;DHT22;60000;51.030;7.024;2023-06-04T10:27:26;30.80;19.76
72128;DHT22;60000;51.030;7.024;2023-06-04T10:29:51;30.75;20.36
72128;DHT22;60000;51.030;7.024;2023-06-04T10:32:18;30.98;19.99
72128;DHT22;60000;51.030;7.024;2023-06-04T10:34:45;31.32;19.91
72128;DHT22;60000;51.030;7.024;2023-06-04T10:37:25;31.45;19.21
72128;DHT22;60000;51.030;7.024;2023-06-04T10:39:52;31.35;19.18
72128;DHT22;60000;51.030;7.024;2023-06-04T10:42:18;31.22;20.02
72128;DHT22;60000;51.030;7.024;2023-06-04T10:44:46;31.42;20.17
72128;DHT22;60000;51.030;7.024;2023-06-04T10:47:25;31.54;19.50
72128;DHT22;60000;51.030;7.024;2023-06-04T10:49:51;31.66;19.22
72128;DHT22;60000;51.030;7.024;2023-06-04T10:52:17;31.76;19.03
72128;DHT22;60000;51.030;7.024;2023-06-04T10:54:45;31.90;19.20
72128;DHT22;60000;51.030;7.024;2023-06-04T10:57:16;31.41;19.42
72128;DHT22;60000;51.030;7.024;2023-06-04T10:59:53;31.32;18.95
72128;DHT22;60000;51.030;7.024;2023-06-04T11:02:18;31.41;19.34
72128;DHT22;60000;51.030;7.024;2023-06-04T11:04:44;31.43;18.61
72128;DHT22;60000;51.030;7.024;2023-06-04T11:07:09;31.36;19.83
72128;DHT22;60000;51.030;7.024;2023-06-04T11:09:36;31.07;18.85
72128;DHT22;60000;51.030;7.024;2023-06-04T11:12:04;30.83;19.49
72128;DHT22;60000;51.030;7.024;2023-06-04T11:14:29;30.78;19.16
72128;DHT22;60000;51.030;7.024;2023-06-04T11:16:55;30.75;18.85
72128;DHT22;60000;51.030;7.024;2023-06-04T11:19:20;30.59;20.15
72128;DHT22;60000;51.030;7.024;2023-06-04T11:21:45;30.84;20.88
72128;DHT22;60000;51.030;7.024;2023-06-04T11:24:12;30.98;19.96
72128;DHT22;60000;51.030;7.024;2023-06-04T11:26:37;31.38;20.15
72128;DHT22;60000;51.030;7.024;2023-06-04T11:29:11;31.65;19.25
72128;DHT22;60000;51.030;7.024;2023-06-04T11:31:45;31.87;19.16
72128;DHT22;60000;51.030;7.024;2023-06-04T11:34:10;32.06;19.74
72128;DHT22;60000;51.030;7.024;2023-06-04T11:36:38;32.06;19.62
72128;DHT22;60000;51.030;7.024;2023-06-04T11:39:04;32.14;19.36
72128;DHT22;60000;51.030;7.024;2023-06-04T11:41:35;32.20;19.26
72128;DHT22;60000;51.030;7.024;2023-06-04T11:44:03;32.42;19.30
72128;DHT22;60000;51.030;7.024;2023-06-04T11:46:32;32.59;19.00
72128;DHT22;60000;51.030;7.024;2023-06-04T11:48:58;32.65;19.06
72128;DHT22;60000;51.030;7.024;2023-06-04T11:51:23;32.88;19.10
72128;DHT22;60000;51.030;7.024;2023-06-04T11:53:49;32.76;18.18
72128;DHT22;60000;51.030;7.024;2023-06-04T11:56:15;32.74;18.25
72128;DHT22;60000;51.030;7.024;2023-06-04T11:58:41;32.74;17.88
72128;DHT22;60000;51.030;7.024;2023-06-04T12:01:07;32.44;18.42
72128;DHT22;60000;51.030;7.024;2023-06-04T12:03:35;32.61;18.67
72128;DHT22;60000;51.030;7.024;2023-06-04T12:08:52;32.35;18.31
72128;DHT22;60000;51.030;7.024;2023-06-04T12:13:50;31.86;19.13
72128;DHT22;60000;51.030;7.024;2023-06-04T12:16:15;32.03;19.72
72128;DHT22;60000;51.030;7.024;2023-06-04T12:18:41;32.23;19.63
72128;DHT22;60000;51.030;7.024;2023-06-04T12:21:22;32.48;19.46
72128;DHT22;60000;51.030;7.024;2023-06-04T12:23:53;32.52;18.57
72128;DHT22;60000;51.030;7.024;2023-06-04T12:26:25;32.55;18.86
72128;DHT22;60000;51.030;7.024;2023-06-04T12:29:16;32.68;19.53
72128;DHT22;60000;51.030;7.024;2023-06-04T12:31:43;32.37;18.16
72128;DHT22;60000;51.030;7.024;2023-06-04T12:34:10;32.21;18.92
72128;DHT22;60000;51.030;7.024;2023-06-04T12:36:36;32.07;19.98
72128;DHT22;60000;51.030;7.024;2023-06-04T12:39:04;32.17;20.48
72128;DHT22;60000;51.030;7.024;2023-06-04T12:41:31;32.23;20.37
72128;DHT22;60000;51.030;7.024;2023-06-04T12:43:56;32.28;19.97
72128;DHT22;60000;51.030;7.024;2023-06-04T12:46:23;32.20;19.92
72128;DHT22;60000;51.030;7.024;2023-06-04T12:48:50;32.03;19.88
72128;DHT22;60000;51.030;7.024;2023-06-04T12:51:15;31.96;19.88
72128;DHT22;60000;51.030;7.024;2023-06-04T12:53:41;31.69;19.19
72128;DHT22;60000;51.030;7.024;2023-06-04T12:56:08;31.62;19.25
72128;DHT22;60000;51.030;7.024;2023-06-04T12:58:33;31.21;19.37
72128;DHT22;60000;51.030;7.024;2023-06-04T13:00:59;30.56;20.94
72128;DHT22;60000;51.030;7.024;2023-06-04T13:03:25;30.22;21.39
72128;DHT22;60000;51.030;7.024;2023-06-04T13:05:50;29.99;21.80
72128;DHT22;60000;51.030;7.024;2023-06-04T13:08:17;30.06;22.54
72128;DHT22;60000;51.030;7.024;2023-06-04T13:10:42;29.95;22.01
72128;DHT22;60000;51.030;7.024;2023-06-04T13:13:07;29.57;22.99
72128;DHT22;60000;51.030;7.024;2023-06-04T13:15:33;29.51;23.60
72128;DHT22;60000;51.030;7.024;2023-06-04T13:17:58;29.44;23.70
72128;DHT22;60000;51.030;7.024;2023-06-04T13:20:24;29.58;23.21
72128;DHT22;60000;51.030;7.024;2023-06-04T13:22:50;29.74;23.90
72128;DHT22;60000;51.030;7.024;2023-06-04T13:25:15;29.85;24.29
72128;DHT22;60000;51.030;7.024;2023-06-04T13:27:40;29.67;22.58
72128;DHT22;60000;51.030;7.024;2023-06-04T13:30:06;29.47;23.72
72128;DHT22;60000;51.030;7.024;2023-06-04T13:32:32;29.57;24.45
72128;DHT22;60000;51.030;7.024;2023-06-04T13:34:57;29.67;23.49
72128;DHT22;60000;51.030;7.024;2023-06-04T13:37:22;29.57;23.38
72128;DHT22;60000;51.030;7.024;2023-06-04T13:39:48;29.59;23.47
72128;DHT22;60000;51.030;7.024;2023-06-04T13:42:13;29.47;22.75
72128;DHT22;60000;51.030;7.024;2023-06-04T13:44:38;29.35;22.89
72128;DHT22;60000;51.030;7.024;2023-06-04T13:47:04;29.24;23.57
72128;DHT22;60000;51.030;7.024;2023-06-04T13:49:33;29.41;24.55
72128;DHT22;60000;51.030;7.024;2023-06-04T13:51:58;29.28;23.27
72128;DHT22;60000;51.030;7.024;2023-06-04T13:54:24;29.39;24.37
72128;DHT22;60000;51.030;7.024;2023-06-04T13:56:49;29.34;23.67
72128;DHT22;60000;51.030;7.024;2023-06-04T13:59:15;29.24;24.02
72128;DHT22;60000;51.030;7.024;2023-06-04T14:01:40;29.17;24.56
72128;DHT22;60000;51.030;7.024;2023-06-04T14:04:05;29.28;24.61
72128;DHT22;60000;51.030;7.024;2023-06-04T14:06:32;29.08;24.21
72128;DHT22;60000;51.030;7.024;2023-06-04T14:08:57;28.73;25.12
72128;DHT22;60000;51.030;7.024;2023-06-04T14:11:22;28.59;24.94
72128;DHT22;60000;51.030;7.024;2023-06-04T14:13:48;28.68;25.54
72128;DHT22;60000;51.030;7.024;2023-06-04T14:16:13;28.55;24.30
72128;DHT22;60000;51.030;7.024;2023-06-04T14:18:39;28.41;23.80
72128;DHT22;60000;51.030;7.024;2023-06-04T14:21:05;28.53;23.98
72128;DHT22;60000;51.030;7.024;2023-06-04T14:23:33;28.69;23.85
72128;DHT22;60000;51.030;7.024;2023-06-04T14:25:59;28.80;23.93
72128;DHT22;60000;51.030;7.024;2023-06-04T14:28:24;28.80;23.23
72128;DHT22;60000;51.030;7.024;2023-06-04T14:30:49;28.80;23.55
72128;DHT22;60000;51.030;7.024;2023-06-04T14:33:15;28.82;24.34
72128;DHT22;60000;51.030;7.024;2023-06-04T14:35:41;28.93;24.20
72128;DHT22;60000;51.030;7.024;2023-06-04T14:38:11;28.83;24.10
72128;DHT22;60000;51.030;7.024;2023-06-04T14:40:37;28.72;24.26
72128;DHT22;60000;51.030;7.024;2023-06-04T14:43:03;28.53;25.38
72128;DHT22;60000;51.030;7.024;2023-06-04T14:45:28;28.52;25.90
72128;DHT22;60000;51.030;7.024;2023-06-04T14:47:53;28.28;24.91
72128;DHT22;60000;51.030;7.024;2023-06-04T14:50:19;28.08;25.12
72128;DHT22;60000;51.030;7.024;2023-06-04T14:52:44;28.08;26.02
72128;DHT22;60000;51.030;7.024;2023-06-04T14:55:10;28.01;25.06
72128;DHT22;60000;51.030;7.024;2023-06-04T14:57:36;28.17;26.37
72128;DHT22;60000;51.030;7.024;2023-06-04T15:00:01;28.25;25.77
72128;DHT22;60000;51.030;7.024;2023-06-04T15:02:27;28.25;25.28
72128;DHT22;60000;51.030;7.024;2023-06-04T15:04:54;28.07;25.85
72128;DHT22;60000;51.030;7.024;2023-06-04T15:07:20;28.12;26.03
72128;DHT22;60000;51.030;7.024;2023-06-04T15:09:45;28.22;25.25
72128;DHT22;60000;51.030;7.024;2023-06-04T15:12:13;28.24;24.74
72128;DHT22;60000;51.030;7.024;2023-06-04T15:14:38;28.28;24.92
72128;DHT22;60000;51.030;7.024;2023-06-04T15:17:04;28.25;24.87
72128;DHT22;60000;51.030;7.024;2023-06-04T15:19:29;28.25;25.18
72128;DHT22;60000;51.030;7.024;2023-06-04T15:21:55;27.98;25.58
72128;DHT22;60000;51.030;7.024;2023-06-04T15:24:20;28.11;26.12
72128;DHT22;60000;51.030;7.024;2023-06-04T15:26:46;27.97;24.94
72128;DHT22;60000;51.030;7.024;2023-06-04T15:29:12;28.00;25.79
72128;DHT22;60000;51.030;7.024;2023-06-04T15:31:37;27.93;25.20
72128;DHT22;60000;51.030;7.024;2023-06-04T15:34:02;27.91;26.16
72128;DHT22;60000;51.030;7.024;2023-06-04T15:36:28;27.96;26.22
72128;DHT22;60000;51.030;7.024;2023-06-04T15:38:53;27.97;26.37
72128;DHT22;60000;51.030;7.024;2023-06-04T15:41:18;27.91;25.65